Granada, Spain
Current Conditions -  °F | °C
As of 9:00 PM on Wednesday 28 Jan 2015 (Local Time) from LEGR Reporting Station
Clear Clear  
Wind Chill: 46°   Ceiling: Unl
Heat Index: 48°   Visibility: 6mi
Dew Point: 37°   Wind: 5mph
Humidity: 66%   Direction: 200°SSW
Pressure: 30.21"   Gusts: NA
Location:  37.18°N, 3.6°W
Report Text: LEGR 282000Z 20004KT 150V240 CAVOK 09/03 Q1023
Loading
Personal Weather Stations






























Interactive Weather Map New forecast layout! Learn more

10-Day Weather Forecast

Advertisements
Track Severe Weather on mobile